KSFM

Sanford Seacoast Regional Airport

Sanford, Maine, USA
METAR KSFM 191756Z AUTO 02008KT 10SM OVC021 18/13 A3000 RMK AO2 SLP160 6//// T01780128 10178 20144 57000
Observed Flight Rules
Sep-19 @ 17:56 UTC (50 minutes ago) Marginal Visual Flight Rules
Wind Visibility Clouds
20° at 8 knots 10 miles
  • Overcast at 2,100' AGL
Temperatures Readings
Current 18°C / 64°F
Dewpoint 13°C / 55°F
Humidity 73%
Altimeter 30" Hg
Pressure 1016 hPa
Elevation 74
METAR KSFM 191756Z AUTO 02008KT 10SM OVC021 18/13 A3000 RMK AO2 SLP160 6//// T01780128 10178 20144 57000
Observed Flight Rules
Sep-19 @ 17:56 UTC
(50 minutes ago)
MVFR
Wind Visibility
20° at 8 knots 10 miles
Clouds
  • Overcast at 2,100' AGL
Temperature Dewpoint
18°C / 64°F 13°C / 55°F
Humidity Altimeter Pressure
73% 30" Hg 1016 hPa